sensor_id;sensor_type;location;lat;lon;timestamp;P1;durP1;ratioP1;P2;durP2;ratioP2
18716;SDS011;9487;50.892;6.906;2023-11-21T00:02:11;11.67;;;7.70;;
18716;SDS011;9487;50.892;6.906;2023-11-21T00:04:39;10.97;;;9.10;;
18716;SDS011;9487;50.892;6.906;2023-11-21T00:07:06;10.80;;;9.60;;
18716;SDS011;9487;50.892;6.906;2023-11-21T00:09:32;11.53;;;9.97;;
18716;SDS011;9487;50.892;6.906;2023-11-21T00:12:01;13.10;;;10.03;;
18716;SDS011;9487;50.892;6.906;2023-11-21T00:14:28;13.10;;;10.53;;
18716;SDS011;9487;50.892;6.906;2023-11-21T00:16:55;13.63;;;11.43;;
18716;SDS011;9487;50.892;6.906;2023-11-21T00:19:22;14.63;;;11.50;;
18716;SDS011;9487;50.892;6.906;2023-11-21T00:21:50;15.87;;;10.90;;
18716;SDS011;9487;50.892;6.906;2023-11-21T00:24:17;16.33;;;11.13;;
18716;SDS011;9487;50.892;6.906;2023-11-21T00:26:45;14.73;;;11.70;;
18716;SDS011;9487;50.892;6.906;2023-11-21T00:29:13;15.87;;;10.97;;
18716;SDS011;9487;50.892;6.906;2023-11-21T00:31:42;13.03;;;10.40;;
18716;SDS011;9487;50.892;6.906;2023-11-21T00:34:09;13.47;;;11.33;;
18716;SDS011;9487;50.892;6.906;2023-11-21T00:36:37;12.17;;;10.43;;
18716;SDS011;9487;50.892;6.906;2023-11-21T00:39:05;14.97;;;11.60;;
18716;SDS011;9487;50.892;6.906;2023-11-21T00:41:32;13.83;;;11.13;;
18716;SDS011;9487;50.892;6.906;2023-11-21T00:44:01;13.90;;;11.13;;
18716;SDS011;9487;50.892;6.906;2023-11-21T00:46:28;14.13;;;10.93;;
18716;SDS011;9487;50.892;6.906;2023-11-21T00:48:55;16.37;;;11.00;;
18716;SDS011;9487;50.892;6.906;2023-11-21T00:51:22;13.33;;;10.57;;
18716;SDS011;9487;50.892;6.906;2023-11-21T00:53:49;15.60;;;11.57;;
18716;SDS011;9487;50.892;6.906;2023-11-21T00:56:18;16.23;;;11.43;;
18716;SDS011;9487;50.892;6.906;2023-11-21T00:58:45;14.60;;;12.00;;
18716;SDS011;9487;50.892;6.906;2023-11-21T01:01:14;14.07;;;12.53;;
18716;SDS011;9487;50.892;6.906;2023-11-21T01:03:42;16.13;;;12.83;;
18716;SDS011;9487;50.892;6.906;2023-11-21T01:06:08;19.83;;;13.93;;
18716;SDS011;9487;50.892;6.906;2023-11-21T01:08:38;19.27;;;14.37;;
18716;SDS011;9487;50.892;6.906;2023-11-21T01:11:06;17.97;;;15.77;;
18716;SDS011;9487;50.892;6.906;2023-11-21T01:13:37;21.57;;;17.03;;
18716;SDS011;9487;50.892;6.906;2023-11-21T01:16:04;26.33;;;18.13;;
18716;SDS011;9487;50.892;6.906;2023-11-21T01:18:32;22.23;;;17.03;;
18716;SDS011;9487;50.892;6.906;2023-11-21T01:21:00;19.43;;;17.27;;
18716;SDS011;9487;50.892;6.906;2023-11-21T01:23:27;26.03;;;18.10;;
18716;SDS011;9487;50.892;6.906;2023-11-21T01:25:55;24.07;;;18.10;;
18716;SDS011;9487;50.892;6.906;2023-11-21T01:28:22;24.60;;;17.93;;
18716;SDS011;9487;50.892;6.906;2023-11-21T01:30:51;22.90;;;18.40;;
18716;SDS011;9487;50.892;6.906;2023-11-21T01:33:19;23.20;;;19.37;;
18716;SDS011;9487;50.892;6.906;2023-11-21T01:35:46;23.47;;;18.40;;
18716;SDS011;9487;50.892;6.906;2023-11-21T01:38:13;28.83;;;20.67;;
18716;SDS011;9487;50.892;6.906;2023-11-21T01:40:40;24.67;;;19.97;;
18716;SDS011;9487;50.892;6.906;2023-11-21T01:43:07;26.60;;;19.87;;
18716;SDS011;9487;50.892;6.906;2023-11-21T01:45:35;24.50;;;19.93;;
18716;SDS011;9487;50.892;6.906;2023-11-21T01:48:03;26.40;;;19.90;;
18716;SDS011;9487;50.892;6.906;2023-11-21T01:50:31;25.23;;;20.40;;
18716;SDS011;9487;50.892;6.906;2023-11-21T01:53:00;23.63;;;19.40;;
18716;SDS011;9487;50.892;6.906;2023-11-21T01:55:28;25.90;;;19.60;;
18716;SDS011;9487;50.892;6.906;2023-11-21T01:57:56;22.70;;;18.37;;
18716;SDS011;9487;50.892;6.906;2023-11-21T02:00:23;22.50;;;19.87;;
18716;SDS011;9487;50.892;6.906;2023-11-21T02:02:51;24.33;;;18.73;;
18716;SDS011;9487;50.892;6.906;2023-11-21T02:05:19;25.37;;;20.00;;
18716;SDS011;9487;50.892;6.906;2023-11-21T02:07:46;25.23;;;19.50;;
18716;SDS011;9487;50.892;6.906;2023-11-21T02:10:14;25.57;;;19.73;;
18716;SDS011;9487;50.892;6.906;2023-11-21T02:12:42;25.10;;;19.63;;
18716;SDS011;9487;50.892;6.906;2023-11-21T02:15:10;30.53;;;21.43;;
18716;SDS011;9487;50.892;6.906;2023-11-21T02:17:42;29.40;;;20.83;;
18716;SDS011;9487;50.892;6.906;2023-11-21T02:20:10;29.60;;;22.70;;
18716;SDS011;9487;50.892;6.906;2023-11-21T02:22:41;31.97;;;21.13;;
18716;SDS011;9487;50.892;6.906;2023-11-21T02:25:10;30.07;;;21.73;;
18716;SDS011;9487;50.892;6.906;2023-11-21T02:27:38;32.10;;;22.27;;
18716;SDS011;9487;50.892;6.906;2023-11-21T02:30:06;28.53;;;22.00;;
18716;SDS011;9487;50.892;6.906;2023-11-21T02:32:37;29.23;;;22.20;;
18716;SDS011;9487;50.892;6.906;2023-11-21T02:35:05;30.43;;;21.70;;
18716;SDS011;9487;50.892;6.906;2023-11-21T02:37:33;28.50;;;21.17;;
18716;SDS011;9487;50.892;6.906;2023-11-21T02:40:00;31.10;;;21.43;;
18716;SDS011;9487;50.892;6.906;2023-11-21T02:42:30;27.30;;;21.00;;
18716;SDS011;9487;50.892;6.906;2023-11-21T02:44:57;31.93;;;22.43;;
18716;SDS011;9487;50.892;6.906;2023-11-21T02:47:24;29.53;;;22.60;;
18716;SDS011;9487;50.892;6.906;2023-11-21T02:49:51;33.73;;;23.27;;
18716;SDS011;9487;50.892;6.906;2023-11-21T02:52:18;29.73;;;22.87;;
18716;SDS011;9487;50.892;6.906;2023-11-21T02:54:45;31.40;;;22.77;;
18716;SDS011;9487;50.892;6.906;2023-11-21T02:57:12;31.10;;;23.83;;
18716;SDS011;9487;50.892;6.906;2023-11-21T02:59:40;30.83;;;23.73;;
18716;SDS011;9487;50.892;6.906;2023-11-21T03:02:07;30.20;;;22.80;;
18716;SDS011;9487;50.892;6.906;2023-11-21T03:04:34;34.03;;;23.30;;
18716;SDS011;9487;50.892;6.906;2023-11-21T03:07:01;34.07;;;25.13;;
18716;SDS011;9487;50.892;6.906;2023-11-21T03:09:30;32.33;;;24.40;;
18716;SDS011;9487;50.892;6.906;2023-11-21T03:11:57;35.53;;;25.77;;
18716;SDS011;9487;50.892;6.906;2023-11-21T03:14:24;37.53;;;24.70;;
18716;SDS011;9487;50.892;6.906;2023-11-21T03:16:52;32.30;;;24.50;;
18716;SDS011;9487;50.892;6.906;2023-11-21T03:19:19;31.73;;;24.47;;
18716;SDS011;9487;50.892;6.906;2023-11-21T03:21:46;32.63;;;24.17;;
18716;SDS011;9487;50.892;6.906;2023-11-21T03:24:13;32.37;;;23.80;;
18716;SDS011;9487;50.892;6.906;2023-11-21T03:26:44;31.23;;;24.60;;
18716;SDS011;9487;50.892;6.906;2023-11-21T03:29:11;30.77;;;24.50;;
18716;SDS011;9487;50.892;6.906;2023-11-21T03:31:39;33.77;;;24.43;;
18716;SDS011;9487;50.892;6.906;2023-11-21T03:34:09;31.87;;;24.70;;
18716;SDS011;9487;50.892;6.906;2023-11-21T03:36:41;30.07;;;23.30;;
18716;SDS011;9487;50.892;6.906;2023-11-21T03:39:08;31.97;;;23.07;;
18716;SDS011;9487;50.892;6.906;2023-11-21T03:41:34;33.53;;;23.53;;
18716;SDS011;9487;50.892;6.906;2023-11-21T03:44:01;26.63;;;21.57;;
18716;SDS011;9487;50.892;6.906;2023-11-21T03:46:28;29.80;;;22.37;;
18716;SDS011;9487;50.892;6.906;2023-11-21T03:48:55;30.63;;;22.13;;
18716;SDS011;9487;50.892;6.906;2023-11-21T03:51:23;33.37;;;21.67;;
18716;SDS011;9487;50.892;6.906;2023-11-21T03:53:50;29.47;;;21.47;;
18716;SDS011;9487;50.892;6.906;2023-11-21T03:56:17;31.47;;;21.00;;
18716;SDS011;9487;50.892;6.906;2023-11-21T03:58:44;32.60;;;22.43;;
18716;SDS011;9487;50.892;6.906;2023-11-21T04:01:11;31.50;;;22.17;;
18716;SDS011;9487;50.892;6.906;2023-11-21T04:03:37;30.60;;;21.83;;
18716;SDS011;9487;50.892;6.906;2023-11-21T04:06:05;30.13;;;21.23;;
18716;SDS011;9487;50.892;6.906;2023-11-21T04:08:38;31.23;;;21.97;;
18716;SDS011;9487;50.892;6.906;2023-11-21T04:11:04;30.43;;;20.53;;
18716;SDS011;9487;50.892;6.906;2023-11-21T04:13:31;33.53;;;21.80;;
18716;SDS011;9487;50.892;6.906;2023-11-21T04:15:58;31.40;;;20.40;;
18716;SDS011;9487;50.892;6.906;2023-11-21T04:18:28;29.97;;;21.20;;
18716;SDS011;9487;50.892;6.906;2023-11-21T04:20:55;32.17;;;20.80;;
18716;SDS011;9487;50.892;6.906;2023-11-21T04:23:22;29.70;;;19.40;;
18716;SDS011;9487;50.892;6.906;2023-11-21T04:25:50;27.77;;;19.60;;
18716;SDS011;9487;50.892;6.906;2023-11-21T04:28:19;28.97;;;20.00;;
18716;SDS011;9487;50.892;6.906;2023-11-21T04:30:46;25.43;;;19.20;;
18716;SDS011;9487;50.892;6.906;2023-11-21T04:33:13;28.90;;;18.53;;
18716;SDS011;9487;50.892;6.906;2023-11-21T04:35:40;27.60;;;19.03;;
18716;SDS011;9487;50.892;6.906;2023-11-21T04:38:06;24.17;;;17.63;;
18716;SDS011;9487;50.892;6.906;2023-11-21T04:40:33;22.97;;;16.93;;
18716;SDS011;9487;50.892;6.906;2023-11-21T04:43:02;22.40;;;16.93;;
18716;SDS011;9487;50.892;6.906;2023-11-21T04:45:29;23.70;;;16.93;;
18716;SDS011;9487;50.892;6.906;2023-11-21T04:47:56;21.00;;;16.47;;
18716;SDS011;9487;50.892;6.906;2023-11-21T04:50:22;22.70;;;17.07;;
18716;SDS011;9487;50.892;6.906;2023-11-21T04:52:51;22.43;;;17.10;;
18716;SDS011;9487;50.892;6.906;2023-11-21T04:55:18;21.70;;;16.33;;
18716;SDS011;9487;50.892;6.906;2023-11-21T04:57:45;22.80;;;18.07;;
18716;SDS011;9487;50.892;6.906;2023-11-21T05:00:16;19.40;;;16.23;;
18716;SDS011;9487;50.892;6.906;2023-11-21T05:02:43;22.83;;;16.83;;
18716;SDS011;9487;50.892;6.906;2023-11-21T05:05:10;19.97;;;14.97;;
18716;SDS011;9487;50.892;6.906;2023-11-21T05:07:38;19.27;;;15.43;;
18716;SDS011;9487;50.892;6.906;2023-11-21T05:10:05;22.03;;;15.97;;
18716;SDS011;9487;50.892;6.906;2023-11-21T05:12:36;20.47;;;16.13;;
18716;SDS011;9487;50.892;6.906;2023-11-21T05:15:04;20.87;;;15.77;;
18716;SDS011;9487;50.892;6.906;2023-11-21T05:17:36;19.90;;;16.40;;
18716;SDS011;9487;50.892;6.906;2023-11-21T05:20:04;19.00;;;15.33;;
18716;SDS011;9487;50.892;6.906;2023-11-21T05:22:34;20.63;;;15.67;;
18716;SDS011;9487;50.892;6.906;2023-11-21T05:25:01;21.30;;;16.37;;
18716;SDS011;9487;50.892;6.906;2023-11-21T05:27:28;21.03;;;16.47;;
18716;SDS011;9487;50.892;6.906;2023-11-21T05:29:56;20.87;;;16.40;;
18716;SDS011;9487;50.892;6.906;2023-11-21T05:32:22;22.53;;;16.63;;
18716;SDS011;9487;50.892;6.906;2023-11-21T05:34:51;25.30;;;17.33;;
18716;SDS011;9487;50.892;6.906;2023-11-21T05:37:18;24.80;;;17.23;;
18716;SDS011;9487;50.892;6.906;2023-11-21T05:39:45;22.50;;;17.20;;
18716;SDS011;9487;50.892;6.906;2023-11-21T05:42:12;21.93;;;17.37;;
18716;SDS011;9487;50.892;6.906;2023-11-21T05:44:40;23.37;;;16.93;;
18716;SDS011;9487;50.892;6.906;2023-11-21T05:47:09;24.37;;;18.33;;
18716;SDS011;9487;50.892;6.906;2023-11-21T05:49:35;24.70;;;17.93;;
18716;SDS011;9487;50.892;6.906;2023-11-21T05:52:04;22.83;;;18.20;;
18716;SDS011;9487;50.892;6.906;2023-11-21T05:54:32;22.27;;;16.87;;
18716;SDS011;9487;50.892;6.906;2023-11-21T05:56:59;24.03;;;17.43;;
18716;SDS011;9487;50.892;6.906;2023-11-21T05:59:26;23.00;;;17.73;;
18716;SDS011;9487;50.892;6.906;2023-11-21T06:01:53;23.27;;;18.83;;
18716;SDS011;9487;50.892;6.906;2023-11-21T06:04:19;31.57;;;21.87;;
18716;SDS011;9487;50.892;6.906;2023-11-21T06:06:49;30.00;;;20.93;;
18716;SDS011;9487;50.892;6.906;2023-11-21T06:09:20;31.40;;;21.83;;
18716;SDS011;9487;50.892;6.906;2023-11-21T06:11:48;33.53;;;22.23;;
18716;SDS011;9487;50.892;6.906;2023-11-21T06:14:14;35.70;;;23.17;;
18716;SDS011;9487;50.892;6.906;2023-11-21T06:16:42;32.03;;;23.20;;
18716;SDS011;9487;50.892;6.906;2023-11-21T06:19:10;30.20;;;22.67;;
18716;SDS011;9487;50.892;6.906;2023-11-21T06:21:37;28.80;;;22.23;;
18716;SDS011;9487;50.892;6.906;2023-11-21T06:24:05;29.70;;;21.67;;
18716;SDS011;9487;50.892;6.906;2023-11-21T06:26:33;30.07;;;21.80;;
18716;SDS011;9487;50.892;6.906;2023-11-21T06:29:00;30.53;;;21.60;;
18716;SDS011;9487;50.892;6.906;2023-11-21T06:31:28;29.37;;;21.60;;
18716;SDS011;9487;50.892;6.906;2023-11-21T06:33:57;29.00;;;21.57;;
18716;SDS011;9487;50.892;6.906;2023-11-21T06:36:24;28.20;;;22.30;;
18716;SDS011;9487;50.892;6.906;2023-11-21T06:38:52;29.27;;;21.33;;
18716;SDS011;9487;50.892;6.906;2023-11-21T06:41:20;32.80;;;22.90;;
18716;SDS011;9487;50.892;6.906;2023-11-21T06:43:48;30.70;;;21.60;;
18716;SDS011;9487;50.892;6.906;2023-11-21T06:46:15;28.90;;;22.67;;
18716;SDS011;9487;50.892;6.906;2023-11-21T06:48:42;42.03;;;23.53;;
18716;SDS011;9487;50.892;6.906;2023-11-21T06:51:10;31.27;;;22.67;;
18716;SDS011;9487;50.892;6.906;2023-11-21T06:53:38;30.10;;;22.57;;
18716;SDS011;9487;50.892;6.906;2023-11-21T06:56:05;33.37;;;23.87;;
18716;SDS011;9487;50.892;6.906;2023-11-21T06:58:41;32.40;;;23.10;;
18716;SDS011;9487;50.892;6.906;2023-11-21T07:01:13;29.77;;;22.60;;
18716;SDS011;9487;50.892;6.906;2023-11-21T07:03:40;34.80;;;23.20;;
18716;SDS011;9487;50.892;6.906;2023-11-21T07:06:08;31.83;;;23.83;;
18716;SDS011;9487;50.892;6.906;2023-11-21T07:08:35;35.17;;;24.13;;
18716;SDS011;9487;50.892;6.906;2023-11-21T07:11:02;34.93;;;23.77;;
18716;SDS011;9487;50.892;6.906;2023-11-21T07:13:29;34.80;;;23.73;;
18716;SDS011;9487;50.892;6.906;2023-11-21T07:15:56;35.50;;;25.43;;
18716;SDS011;9487;50.892;6.906;2023-11-21T07:18:25;29.77;;;17.37;;
18716;SDS011;9487;50.892;6.906;2023-11-21T07:20:52;37.53;;;22.53;;
18716;SDS011;9487;50.892;6.906;2023-11-21T07:23:19;42.20;;;26.63;;
18716;SDS011;9487;50.892;6.906;2023-11-21T07:25:47;36.97;;;26.83;;
18716;SDS011;9487;50.892;6.906;2023-11-21T07:28:14;38.50;;;25.97;;
18716;SDS011;9487;50.892;6.906;2023-11-21T07:30:41;35.50;;;26.03;;
18716;SDS011;9487;50.892;6.906;2023-11-21T07:33:09;37.77;;;27.13;;
18716;SDS011;9487;50.892;6.906;2023-11-21T07:35:37;44.67;;;28.87;;
18716;SDS011;9487;50.892;6.906;2023-11-21T07:38:04;43.40;;;28.03;;
18716;SDS011;9487;50.892;6.906;2023-11-21T07:40:31;45.47;;;29.37;;
18716;SDS011;9487;50.892;6.906;2023-11-21T07:42:58;42.10;;;24.73;;
18716;SDS011;9487;50.892;6.906;2023-11-21T07:45:25;50.23;;;31.53;;
18716;SDS011;9487;50.892;6.906;2023-11-21T07:47:52;41.87;;;28.93;;
18716;SDS011;9487;50.892;6.906;2023-11-21T07:50:19;37.57;;;27.03;;
18716;SDS011;9487;50.892;6.906;2023-11-21T07:52:48;39.67;;;28.83;;
18716;SDS011;9487;50.892;6.906;2023-11-21T07:55:15;38.20;;;26.30;;
18716;SDS011;9487;50.892;6.906;2023-11-21T07:57:42;39.93;;;27.47;;
18716;SDS011;9487;50.892;6.906;2023-11-21T08:00:09;39.10;;;27.67;;
18716;SDS011;9487;50.892;6.906;2023-11-21T08:02:37;34.87;;;27.17;;
18716;SDS011;9487;50.892;6.906;2023-11-21T08:05:07;39.43;;;28.40;;
18716;SDS011;9487;50.892;6.906;2023-11-21T08:07:34;38.03;;;27.27;;
18716;SDS011;9487;50.892;6.906;2023-11-21T08:10:02;42.60;;;27.73;;
18716;SDS011;9487;50.892;6.906;2023-11-21T08:12:31;38.63;;;27.40;;
18716;SDS011;9487;50.892;6.906;2023-11-21T08:14:58;39.13;;;27.57;;
18716;SDS011;9487;50.892;6.906;2023-11-21T08:17:25;37.27;;;27.67;;
18716;SDS011;9487;50.892;6.906;2023-11-21T08:19:52;38.57;;;27.20;;
18716;SDS011;9487;50.892;6.906;2023-11-21T08:22:19;42.07;;;29.23;;
18716;SDS011;9487;50.892;6.906;2023-11-21T08:24:47;41.87;;;28.60;;
18716;SDS011;9487;50.892;6.906;2023-11-21T08:27:17;46.77;;;30.67;;
18716;SDS011;9487;50.892;6.906;2023-11-21T08:29:44;43.27;;;29.30;;
18716;SDS011;9487;50.892;6.906;2023-11-21T08:32:11;38.90;;;27.73;;
18716;SDS011;9487;50.892;6.906;2023-11-21T08:34:38;36.97;;;27.50;;
18716;SDS011;9487;50.892;6.906;2023-11-21T08:37:08;35.97;;;26.37;;
18716;SDS011;9487;50.892;6.906;2023-11-21T08:39:36;38.30;;;28.37;;
18716;SDS011;9487;50.892;6.906;2023-11-21T08:42:03;43.10;;;29.07;;
18716;SDS011;9487;50.892;6.906;2023-11-21T08:44:32;39.80;;;28.30;;
18716;SDS011;9487;50.892;6.906;2023-11-21T08:46:58;40.93;;;29.40;;
18716;SDS011;9487;50.892;6.906;2023-11-21T08:49:25;38.97;;;27.83;;
18716;SDS011;9487;50.892;6.906;2023-11-21T08:51:54;41.77;;;28.30;;
18716;SDS011;9487;50.892;6.906;2023-11-21T08:54:22;43.73;;;29.60;;
18716;SDS011;9487;50.892;6.906;2023-11-21T08:56:50;35.90;;;26.07;;
18716;SDS011;9487;50.892;6.906;2023-11-21T08:59:17;34.30;;;25.50;;
18716;SDS011;9487;50.892;6.906;2023-11-21T09:01:46;36.80;;;25.57;;
18716;SDS011;9487;50.892;6.906;2023-11-21T09:04:14;35.87;;;25.47;;
18716;SDS011;9487;50.892;6.906;2023-11-21T09:06:41;37.07;;;25.40;;
18716;SDS011;9487;50.892;6.906;2023-11-21T09:09:08;39.83;;;25.77;;
18716;SDS011;9487;50.892;6.906;2023-11-21T09:11:36;40.97;;;25.97;;
18716;SDS011;9487;50.892;6.906;2023-11-21T09:14:03;37.37;;;25.17;;
18716;SDS011;9487;50.892;6.906;2023-11-21T09:16:30;40.03;;;25.90;;
18716;SDS011;9487;50.892;6.906;2023-11-21T09:18:58;35.93;;;25.10;;
18716;SDS011;9487;50.892;6.906;2023-11-21T09:21:25;39.37;;;25.07;;
18716;SDS011;9487;50.892;6.906;2023-11-21T09:23:52;37.87;;;25.67;;
18716;SDS011;9487;50.892;6.906;2023-11-21T09:26:19;39.77;;;26.53;;
18716;SDS011;9487;50.892;6.906;2023-11-21T09:28:46;38.77;;;25.73;;
18716;SDS011;9487;50.892;6.906;2023-11-21T09:31:13;38.53;;;26.23;;
18716;SDS011;9487;50.892;6.906;2023-11-21T09:33:42;43.23;;;26.93;;
18716;SDS011;9487;50.892;6.906;2023-11-21T09:36:12;42.90;;;26.00;;
18716;SDS011;9487;50.892;6.906;2023-11-21T09:38:40;41.90;;;26.47;;
18716;SDS011;9487;50.892;6.906;2023-11-21T09:41:09;42.93;;;26.67;;
18716;SDS011;9487;50.892;6.906;2023-11-21T09:43:42;40.83;;;27.73;;
18716;SDS011;9487;50.892;6.906;2023-11-21T09:46:12;38.57;;;24.97;;
18716;SDS011;9487;50.892;6.906;2023-11-21T09:48:45;39.10;;;24.30;;
18716;SDS011;9487;50.892;6.906;2023-11-21T09:51:15;39.47;;;25.97;;
18716;SDS011;9487;50.892;6.906;2023-11-21T09:53:45;37.77;;;23.93;;
18716;SDS011;9487;50.892;6.906;2023-11-21T09:56:17;37.90;;;24.63;;
18716;SDS011;9487;50.892;6.906;2023-11-21T09:58:50;41.70;;;25.07;;
18716;SDS011;9487;50.892;6.906;2023-11-21T10:01:18;37.57;;;25.93;;
18716;SDS011;9487;50.892;6.906;2023-11-21T10:03:46;41.40;;;24.77;;
18716;SDS011;9487;50.892;6.906;2023-11-21T10:06:15;39.00;;;23.93;;
18716;SDS011;9487;50.892;6.906;2023-11-21T10:08:44;44.50;;;26.53;;
18716;SDS011;9487;50.892;6.906;2023-11-21T10:11:11;44.90;;;26.47;;
18716;SDS011;9487;50.892;6.906;2023-11-21T10:13:39;39.83;;;24.83;;
18716;SDS011;9487;50.892;6.906;2023-11-21T10:16:07;41.43;;;26.10;;
18716;SDS011;9487;50.892;6.906;2023-11-21T10:18:38;40.70;;;24.70;;
18716;SDS011;9487;50.892;6.906;2023-11-21T10:21:09;38.37;;;25.37;;
18716;SDS011;9487;50.892;6.906;2023-11-21T10:23:38;41.10;;;25.70;;
18716;SDS011;9487;50.892;6.906;2023-11-21T10:26:05;40.80;;;25.63;;
18716;SDS011;9487;50.892;6.906;2023-11-21T10:28:35;43.30;;;26.50;;
18716;SDS011;9487;50.892;6.906;2023-11-21T10:31:06;40.33;;;26.00;;
18716;SDS011;9487;50.892;6.906;2023-11-21T10:33:36;45.87;;;26.40;;
18716;SDS011;9487;50.892;6.906;2023-11-21T10:36:04;41.93;;;26.30;;
18716;SDS011;9487;50.892;6.906;2023-11-21T10:38:33;45.60;;;26.97;;
18716;SDS011;9487;50.892;6.906;2023-11-21T10:41:11;43.23;;;28.03;;
18716;SDS011;9487;50.892;6.906;2023-11-21T10:43:40;45.67;;;28.60;;
18716;SDS011;9487;50.892;6.906;2023-11-21T10:46:07;48.07;;;29.00;;
18716;SDS011;9487;50.892;6.906;2023-11-21T10:48:34;46.37;;;28.17;;
18716;SDS011;9487;50.892;6.906;2023-11-21T10:51:01;50.17;;;29.90;;
18716;SDS011;9487;50.892;6.906;2023-11-21T10:53:38;43.97;;;28.13;;
18716;SDS011;9487;50.892;6.906;2023-11-21T10:56:06;48.60;;;27.60;;
18716;SDS011;9487;50.892;6.906;2023-11-21T10:58:37;46.93;;;28.43;;
18716;SDS011;9487;50.892;6.906;2023-11-21T11:01:06;43.80;;;28.00;;
18716;SDS011;9487;50.892;6.906;2023-11-21T11:03:33;44.23;;;27.33;;
18716;SDS011;9487;50.892;6.906;2023-11-21T11:06:03;45.33;;;29.03;;
18716;SDS011;9487;50.892;6.906;2023-11-21T11:08:36;49.13;;;29.27;;
18716;SDS011;9487;50.892;6.906;2023-11-21T11:11:04;49.73;;;30.03;;
18716;SDS011;9487;50.892;6.906;2023-11-21T11:13:31;45.67;;;28.33;;
18716;SDS011;9487;50.892;6.906;2023-11-21T11:15:59;52.80;;;30.00;;
18716;SDS011;9487;50.892;6.906;2023-11-21T11:18:27;47.13;;;26.23;;
18716;SDS011;9487;50.892;6.906;2023-11-21T11:20:55;44.40;;;25.33;;
18716;SDS011;9487;50.892;6.906;2023-11-21T11:23:32;43.43;;;24.77;;
18716;SDS011;9487;50.892;6.906;2023-11-21T11:26:15;37.67;;;22.77;;
18716;SDS011;9487;50.892;6.906;2023-11-21T11:28:53;40.37;;;22.73;;
18716;SDS011;9487;50.892;6.906;2023-11-21T11:31:31;40.60;;;22.97;;
18716;SDS011;9487;50.892;6.906;2023-11-21T11:34:08;38.90;;;19.90;;
18716;SDS011;9487;50.892;6.906;2023-11-21T11:36:47;35.43;;;19.73;;
18716;SDS011;9487;50.892;6.906;2023-11-21T11:39:27;36.03;;;20.23;;
18716;SDS011;9487;50.892;6.906;2023-11-21T11:41:55;35.07;;;19.57;;
18716;SDS011;9487;50.892;6.906;2023-11-21T11:47:19;41.67;;;20.77;;
18716;SDS011;9487;50.892;6.906;2023-11-21T11:50:00;38.43;;;21.33;;
18716;SDS011;9487;50.892;6.906;2023-11-21T11:52:32;39.93;;;21.70;;
18716;SDS011;9487;50.892;6.906;2023-11-21T11:55:03;40.33;;;21.33;;
18716;SDS011;9487;50.892;6.906;2023-11-21T11:57:32;41.37;;;21.77;;
18716;SDS011;9487;50.892;6.906;2023-11-21T12:00:07;46.40;;;23.07;;
18716;SDS011;9487;50.892;6.906;2023-11-21T12:02:42;44.27;;;23.30;;
18716;SDS011;9487;50.892;6.906;2023-11-21T12:05:13;38.47;;;21.27;;
18716;SDS011;9487;50.892;6.906;2023-11-21T12:07:44;39.90;;;22.10;;
18716;SDS011;9487;50.892;6.906;2023-11-21T12:10:14;42.07;;;21.80;;
18716;SDS011;9487;50.892;6.906;2023-11-21T12:12:46;42.03;;;23.07;;
18716;SDS011;9487;50.892;6.906;2023-11-21T12:15:15;41.17;;;21.90;;
18716;SDS011;9487;50.892;6.906;2023-11-21T12:17:44;39.13;;;23.33;;
18716;SDS011;9487;50.892;6.906;2023-11-21T12:20:12;39.97;;;21.67;;
18716;SDS011;9487;50.892;6.906;2023-11-21T12:22:44;44.37;;;23.20;;
18716;SDS011;9487;50.892;6.906;2023-11-21T12:25:15;45.57;;;24.57;;
18716;SDS011;9487;50.892;6.906;2023-11-21T12:27:43;44.17;;;24.53;;
18716;SDS011;9487;50.892;6.906;2023-11-21T12:30:11;42.63;;;23.43;;
18716;SDS011;9487;50.892;6.906;2023-11-21T12:32:44;40.40;;;22.27;;
18716;SDS011;9487;50.892;6.906;2023-11-21T12:35:12;36.83;;;21.97;;
18716;SDS011;9487;50.892;6.906;2023-11-21T12:37:38;37.50;;;23.60;;
18716;SDS011;9487;50.892;6.906;2023-11-21T12:40:08;37.50;;;20.90;;
18716;SDS011;9487;50.892;6.906;2023-11-21T12:42:37;37.37;;;19.03;;
18716;SDS011;9487;50.892;6.906;2023-11-21T12:45:07;37.53;;;19.50;;
18716;SDS011;9487;50.892;6.906;2023-11-21T12:47:41;31.40;;;18.97;;
18716;SDS011;9487;50.892;6.906;2023-11-21T12:50:09;34.53;;;19.00;;
18716;SDS011;9487;50.892;6.906;2023-11-21T12:52:40;30.67;;;18.70;;
18716;SDS011;9487;50.892;6.906;2023-11-21T12:55:13;32.57;;;17.40;;
18716;SDS011;9487;50.892;6.906;2023-11-21T12:57:44;25.47;;;16.97;;
18716;SDS011;9487;50.892;6.906;2023-11-21T13:00:12;25.50;;;15.27;;
18716;SDS011;9487;50.892;6.906;2023-11-21T13:02:52;29.20;;;15.77;;
18716;SDS011;9487;50.892;6.906;2023-11-21T13:05:28;28.57;;;17.03;;
18716;SDS011;9487;50.892;6.906;2023-11-21T13:07:57;28.87;;;17.17;;
18716;SDS011;9487;50.892;6.906;2023-11-21T13:10:28;27.67;;;16.10;;
18716;SDS011;9487;50.892;6.906;2023-11-21T13:12:55;29.57;;;17.77;;
18716;SDS011;9487;50.892;6.906;2023-11-21T13:15:25;26.50;;;16.90;;
18716;SDS011;9487;50.892;6.906;2023-11-21T13:17:53;27.40;;;17.07;;
18716;SDS011;9487;50.892;6.906;2023-11-21T13:20:22;26.23;;;16.03;;
18716;SDS011;9487;50.892;6.906;2023-11-21T13:22:52;27.03;;;15.73;;
18716;SDS011;9487;50.892;6.906;2023-11-21T13:25:22;24.23;;;14.50;;
18716;SDS011;9487;50.892;6.906;2023-11-21T13:27:52;27.17;;;16.23;;
18716;SDS011;9487;50.892;6.906;2023-11-21T13:30:19;29.30;;;17.73;;
18716;SDS011;9487;50.892;6.906;2023-11-21T13:32:51;40.03;;;22.97;;
18716;SDS011;9487;50.892;6.906;2023-11-21T13:35:22;39.93;;;23.30;;
18716;SDS011;9487;50.892;6.906;2023-11-21T13:37:57;44.90;;;26.23;;
18716;SDS011;9487;50.892;6.906;2023-11-21T13:40:30;42.50;;;27.17;;
18716;SDS011;9487;50.892;6.906;2023-11-21T13:42:59;46.60;;;26.97;;
18716;SDS011;9487;50.892;6.906;2023-11-21T13:45:30;47.50;;;26.90;;
18716;SDS011;9487;50.892;6.906;2023-11-21T13:47:57;45.73;;;27.47;;
18716;SDS011;9487;50.892;6.906;2023-11-21T13:50:24;43.40;;;26.63;;
18716;SDS011;9487;50.892;6.906;2023-11-21T13:52:58;48.77;;;25.77;;
18716;SDS011;9487;50.892;6.906;2023-11-21T13:55:35;44.67;;;25.47;;
18716;SDS011;9487;50.892;6.906;2023-11-21T13:58:04;46.13;;;25.60;;
18716;SDS011;9487;50.892;6.906;2023-11-21T14:00:37;49.83;;;26.57;;
18716;SDS011;9487;50.892;6.906;2023-11-21T14:03:10;46.47;;;26.03;;
18716;SDS011;9487;50.892;6.906;2023-11-21T14:05:46;42.07;;;24.23;;
18716;SDS011;9487;50.892;6.906;2023-11-21T14:08:18;41.57;;;24.53;;
18716;SDS011;9487;50.892;6.906;2023-11-21T14:10:46;39.53;;;23.63;;
18716;SDS011;9487;50.892;6.906;2023-11-21T14:13:16;40.53;;;23.20;;
18716;SDS011;9487;50.892;6.906;2023-11-21T14:15:45;38.87;;;22.40;;
18716;SDS011;9487;50.892;6.906;2023-11-21T14:18:16;41.07;;;22.03;;
18716;SDS011;9487;50.892;6.906;2023-11-21T14:20:51;39.80;;;22.03;;
18716;SDS011;9487;50.892;6.906;2023-11-21T14:23:19;35.40;;;21.97;;
18716;SDS011;9487;50.892;6.906;2023-11-21T14:25:46;35.50;;;21.03;;
18716;SDS011;9487;50.892;6.906;2023-11-21T14:28:13;38.37;;;21.37;;
18716;SDS011;9487;50.892;6.906;2023-11-21T14:30:40;36.07;;;20.97;;
18716;SDS011;9487;50.892;6.906;2023-11-21T14:33:07;33.07;;;19.37;;
18716;SDS011;9487;50.892;6.906;2023-11-21T14:35:36;30.43;;;18.40;;
18716;SDS011;9487;50.892;6.906;2023-11-21T14:38:03;36.20;;;21.37;;
18716;SDS011;9487;50.892;6.906;2023-11-21T14:40:32;28.93;;;17.40;;
18716;SDS011;9487;50.892;6.906;2023-11-21T14:43:01;32.13;;;18.33;;
18716;SDS011;9487;50.892;6.906;2023-11-21T14:45:30;32.87;;;18.70;;
18716;SDS011;9487;50.892;6.906;2023-11-21T14:47:57;34.80;;;19.30;;